Time;durP1;ratioP1;P1;durP2;ratioP2;P2;SDS_P1;SDS_P2;PMS_P1;PMS_P2;Temp;Humidity;BMP_temperature;BMP_pressure;BME280_temperature;BME280_humidity;BME280_pressure;Samples;Min_cycle;Max_cycle;Signal;HPM_P1;HPM_P2
2022/11/04 00:01:40;;;;;;;0.40;0.40;;;11.10;99.90;;;;;;5080787;28;20072;-90
2022/11/04 00:04:07;;;;;;;0.40;0.40;;;11.10;99.90;;;;;;5055680;28;20028;-86
2022/11/04 00:06:33;;;;;;;0.60;0.60;;;11.00;99.90;;;;;;5085471;28;20038;-85
2022/11/04 00:08:59;;;;;;;0.30;0.30;;;11.00;99.90;;;;;;5044667;28;20124;-83
2022/11/04 00:14:15;;;;;;;0.35;0.35;;;11.10;99.90;;;;;;5070876;28;20044;-86
2022/11/04 00:19:26;;;;;;;0.77;0.70;;;11.10;99.90;;;;;;5078299;28;20063;-85
2022/11/04 00:30:15;;;;;;;0.98;0.98;;;11.10;99.90;;;;;;5078465;28;20036;-85
2022/11/04 00:33:41;;;;;;;0.85;0.85;;;11.10;99.90;;;;;;5050363;28;20500;-87
2022/11/04 00:35:36;;;;;;;0.80;0.80;;;11.10;99.90;;;;;;5079050;28;20051;-84
2022/11/04 00:38:01;;;;;;;2.80;0.80;;;11.10;99.90;;;;;;5072934;28;20036;-85
2022/11/04 00:40:27;;;;;;;0.93;0.93;;;11.10;99.90;;;;;;5053186;28;20036;-86
2022/11/04 00:42:53;;;;;;;1.70;0.50;;;11.10;99.90;;;;;;5054063;28;20094;-86
2022/11/04 00:45:18;;;;;;;0.55;0.55;;;11.20;99.90;;;;;;5089553;28;20122;-87
2022/11/04 00:47:44;;;;;;;0.80;0.70;;;11.10;99.90;;;;;;5069784;28;20036;-87
2022/11/04 00:50:10;;;;;;;1.05;0.95;;;11.00;99.90;;;;;;5074629;28;20048;-87
2022/11/04 00:52:35;;;;;;;0.80;0.73;;;11.00;99.90;;;;;;5084284;28;20043;-85
2022/11/04 00:55:01;;;;;;;0.52;0.52;;;11.00;99.90;;;;;;5084345;28;20052;-85
2022/11/04 00:57:28;;;;;;;0.50;0.50;;;10.90;99.90;;;;;;5053255;28;20049;-86
2022/11/04 00:59:54;;;;;;;0.40;0.40;;;10.90;99.90;;;;;;5075389;28;20037;-86
2022/11/04 01:02:20;;;;;;;0.60;0.60;;;10.80;99.90;;;;;;5065771;28;20113;-84
2022/11/04 01:04:46;;;;;;;3.00;0.60;;;10.70;99.90;;;;;;5105016;28;20052;-85
2022/11/04 01:07:12;;;;;;;0.38;0.38;;;10.60;99.90;;;;;;5090468;28;20048;-85
2022/11/04 01:09:38;;;;;;;0.47;0.47;;;10.50;99.90;;;;;;5117883;27;20137;-85
2022/11/04 01:12:03;;;;;;;0.30;0.30;;;10.50;99.90;;;;;;5067916;28;20051;-84
2022/11/04 01:14:29;;;;;;;0.50;0.50;;;10.40;99.90;;;;;;5084451;28;20477;-85
2022/11/04 01:16:55;;;;;;;0.45;0.45;;;10.40;99.90;;;;;;5080648;28;20055;-86
2022/11/04 01:19:21;;;;;;;0.50;0.50;;;10.30;99.90;;;;;;5054630;28;20040;-87
2022/11/04 01:21:51;;;;;;;;;;;10.30;99.90;;;;;;5073449;28;20043;-84
2022/11/04 01:24:17;;;;;;;0.40;0.40;;;10.30;99.90;;;;;;5085502;28;19922;-86
2022/11/04 01:26:42;;;;;;;0.50;0.50;;;10.20;99.90;;;;;;5077242;28;20115;-86
2022/11/04 01:29:08;;;;;;;0.50;0.50;;;10.20;99.90;;;;;;5074173;28;20071;-87
2022/11/04 01:31:34;;;;;;;0.40;0.40;;;10.20;99.90;;;;;;5085673;28;20051;-85
2022/11/04 01:33:59;;;;;;;0.40;0.40;;;10.20;99.90;;;;;;5082998;28;20792;-85
2022/11/04 01:36:26;;;;;;;0.52;0.52;;;10.90;99.90;;;;;;5102290;28;20448;-84
2022/11/04 01:38:54;;;;;;;0.50;0.50;;;10.20;99.90;;;;;;5082276;28;20040;-85
2022/11/04 01:41:25;;;;;;;0.43;0.43;;;10.20;99.90;;;;;;5080170;28;20036;-86
2022/11/04 01:43:57;;;;;;;0.57;0.57;;;10.20;99.90;;;;;;5119565;27;21284;-86
2022/11/04 01:46:36;;;;;;;0.40;0.40;;;10.10;99.90;;;;;;5098824;28;20107;-86
2022/11/04 01:49:12;;;;;;;0.43;0.43;;;10.10;99.90;;;;;;5082338;28;20052;-84
2022/11/04 01:51:40;;;;;;;0.40;0.40;;;10.10;99.90;;;;;;5069713;28;20055;-85
2022/11/04 01:54:09;;;;;;;0.40;0.40;;;10.10;99.90;;;;;;5117740;27;20090;-86
2022/11/04 01:56:36;;;;;;;0.32;0.32;;;10.10;99.90;;;;;;5114767;27;20185;-85
2022/11/04 01:59:08;;;;;;;0.40;0.40;;;10.10;99.90;;;;;;5072880;28;20053;-85
2022/11/04 02:01:33;;;;;;;0.50;0.50;;;10.10;99.90;;;;;;5087211;28;20040;-85
2022/11/04 02:04:45;;;;;;;0.55;0.55;;;10.10;99.90;;;;;;5064908;28;20041;-86
2022/11/04 02:06:47;;;;;;;0.40;0.40;;;10.10;99.90;;;;;;5076863;28;20036;-86
2022/11/04 02:09:15;;;;;;;0.50;0.50;;;10.10;99.90;;;;;;5086593;28;20045;-86
2022/11/04 02:14:25;;;;;;;1.95;1.33;;;10.10;99.90;;;;;;5081024;28;20499;-86
2022/11/04 02:16:54;;;;;;;0.50;0.50;;;10.20;99.90;;;;;;5085609;28;20042;-85
2022/11/04 02:19:43;;;;;;;0.50;0.50;;;10.20;99.90;;;;;;5068173;28;20508;-88
2022/11/04 02:22:27;;;;;;;0.30;0.30;;;10.20;99.90;;;;;;5065105;28;20066;-86
2022/11/04 02:25:05;;;;;;;0.50;0.50;;;10.20;99.90;;;;;;5078246;28;20037;-87
2022/11/04 02:27:58;;;;;;;0.47;0.47;;;10.20;99.90;;;;;;5085740;28;20585;-85
2022/11/04 02:30:26;;;;;;;1.30;0.93;;;10.20;99.90;;;;;;5078763;28;20048;-84
2022/11/04 02:33:10;;;;;;;0.30;0.30;;;10.20;99.90;;;;;;5069867;28;20040;-87
2022/11/04 02:35:38;;;;;;;0.30;0.30;;;10.20;99.90;;;;;;5090040;28;20124;-86
2022/11/04 02:38:34;;;;;;;0.30;0.30;;;10.20;99.90;;;;;;5082259;28;20028;-86
2022/11/04 02:41:15;;;;;;;0.38;0.38;;;10.20;99.90;;;;;;5078054;28;20090;-87
2022/11/04 02:43:48;;;;;;;0.40;0.40;;;10.10;99.90;;;;;;5070250;28;20048;-87
2022/11/04 02:46:23;;;;;;;0.47;0.47;;;10.00;99.90;;;;;;5065947;28;20070;-85
2022/11/04 02:48:51;;;;;;;0.60;0.60;;;10.00;99.90;;;;;;5084173;28;20063;-86
2022/11/04 02:51:35;;;;;;;3.92;0.65;;;10.00;99.90;;;;;;5084629;28;20059;-85
2022/11/04 02:54:41;;;;;;;0.50;0.50;;;10.00;99.90;;;;;;5103212;27;20439;-87
2022/11/04 02:57:12;;;;;;;0.77;0.77;;;10.00;99.90;;;;;;5068455;28;20463;-87
2022/11/04 02:59:50;;;;;;;0.40;0.40;;;9.90;99.90;;;;;;5085448;28;20479;-86
2022/11/04 03:02:21;;;;;;;0.50;0.50;;;9.90;99.90;;;;;;5082871;28;20115;-85
2022/11/04 03:04:50;;;;;;;0.40;0.40;;;9.90;99.90;;;;;;5104297;28;20100;-85
2022/11/04 03:07:21;;;;;;;0.40;0.40;;;9.70;99.90;;;;;;5076151;28;20124;-86
2022/11/04 03:09:51;;;;;;;0.40;0.40;;;9.70;99.90;;;;;;5117296;27;20044;-85
2022/11/04 03:12:23;;;;;;;0.40;0.40;;;9.70;99.90;;;;;;5120197;27;20036;-85
2022/11/04 03:14:53;;;;;;;0.30;0.30;;;9.70;99.90;;;;;;5087498;28;20044;-84
2022/11/04 03:17:30;;;;;;;0.43;0.43;;;9.70;99.90;;;;;;5065298;28;20063;-86
2022/11/04 03:19:57;;;;;;;;;;;9.80;99.90;;;;;;5085937;28;20044;-84
2022/11/04 03:22:28;;;;;;;0.40;0.40;;;9.90;99.90;;;;;;5112353;27;19958;-85
2022/11/04 03:24:54;;;;;;;0.20;0.20;;;9.90;99.90;;;;;;5075432;28;20040;-86
2022/11/04 03:28:01;;;;;;;0.35;0.35;;;9.90;99.90;;;;;;5067692;28;21727;-85
2022/11/04 03:30:36;;;;;;;0.40;0.40;;;9.90;99.90;;;;;;5120846;27;20055;-88
2022/11/04 03:33:29;;;;;;;0.40;0.40;;;9.90;99.90;;;;;;5074535;28;20045;-85
2022/11/04 03:35:55;;;;;;;0.43;0.43;;;10.00;99.90;;;;;;5118379;27;20031;-85
2022/11/04 03:38:22;;;;;;;0.45;0.45;;;9.90;99.90;;;;;;5081342;28;20047;-84
2022/11/04 03:40:48;;;;;;;0.45;0.45;;;10.50;99.90;;;;;;5068646;28;20040;-86
2022/11/04 03:43:15;;;;;;;;;;;9.90;99.90;;;;;;5072568;28;20156;-86
2022/11/04 03:45:42;;;;;;;0.50;0.50;;;9.90;99.90;;;;;;5086348;28;20323;-85
2022/11/04 03:48:08;;;;;;;0.40;0.40;;;9.90;99.90;;;;;;5074985;28;20047;-83
2022/11/04 03:50:48;;;;;;;0.40;0.40;;;9.90;99.90;;;;;;5107569;28;20073;-85
2022/11/04 03:53:19;;;;;;;0.38;0.38;;;10.00;99.90;;;;;;5085679;28;20093;-84
2022/11/04 03:55:59;;;;;;;0.40;0.40;;;9.90;99.90;;;;;;5071370;28;20040;-84
2022/11/04 03:58:40;;;;;;;0.40;0.40;;;10.00;99.90;;;;;;5085433;27;20535;-85
2022/11/04 04:01:24;;;;;;;0.50;0.50;;;10.00;99.90;;;;;;5085715;28;20028;-88
2022/11/04 04:03:58;;;;;;;0.50;0.50;;;9.90;99.90;;;;;;5080997;28;20099;-86
2022/11/04 04:06:31;;;;;;;0.30;0.30;;;9.90;99.90;;;;;;5070217;28;20104;-85
2022/11/04 04:09:10;;;;;;;0.40;0.40;;;9.90;99.90;;;;;;5086202;28;20047;-86
2022/11/04 04:12:17;;;;;;;1.65;0.80;;;10.00;99.90;;;;;;5068826;28;20039;-85
2022/11/04 04:14:49;;;;;;;0.40;0.40;;;10.00;99.90;;;;;;5084890;28;20111;-84
2022/11/04 04:17:28;;;;;;;0.60;0.60;;;10.10;99.90;;;;;;5118816;27;20036;-83
2022/11/04 04:20:01;;;;;;;0.40;0.40;;;10.10;99.90;;;;;;5080778;28;20046;-86
2022/11/04 04:22:49;;;;;;;0.40;0.40;;;10.00;99.90;;;;;;5069953;28;20032;-85
2022/11/04 04:28:03;;;;;;;0.50;0.50;;;9.90;99.90;;;;;;5096634;28;20051;-83
2022/11/04 04:30:29;;;;;;;0.50;0.50;;;9.80;99.90;;;;;;5116286;28;20079;-81
2022/11/04 04:33:10;;;;;;;0.63;0.63;;;9.70;99.90;;;;;;5091367;28;20048;-82
2022/11/04 04:35:48;;;;;;;0.47;0.47;;;9.60;99.90;;;;;;5103451;28;20096;-82
2022/11/04 04:46:56;;;;;;;0.32;0.32;;;9.50;99.90;;;;;;5069328;28;20048;-83
2022/11/04 04:49:21;;;;;;;0.32;0.32;;;9.50;99.90;;;;;;5069343;28;20039;-83
2022/11/04 04:51:47;;;;;;;0.40;0.40;;;9.50;99.90;;;;;;5096792;28;20186;-86
2022/11/04 04:54:13;;;;;;;0.50;0.50;;;9.60;99.90;;;;;;5086694;28;20043;-87
2022/11/04 04:56:39;;;;;;;;;;;9.60;99.90;;;;;;5065850;28;20527;-85
2022/11/04 04:59:05;;;;;;;0.50;0.50;;;9.60;99.90;;;;;;5088534;28;19919;-83
2022/11/04 05:01:31;;;;;;;0.40;0.40;;;9.60;99.90;;;;;;5070691;28;20040;-84
2022/11/04 05:03:57;;;;;;;;;;;9.60;99.90;;;;;;5081609;28;20050;-84
2022/11/04 05:06:22;;;;;;;1.00;0.82;;;9.60;99.90;;;;;;5066507;28;19916;-85
2022/11/04 05:08:48;;;;;;;0.50;0.50;;;9.50;99.90;;;;;;5081812;28;20043;-84
2022/11/04 05:11:14;;;;;;;0.30;0.30;;;9.50;99.90;;;;;;5099133;28;20208;-85
2022/11/04 05:13:40;;;;;;;0.80;0.80;;;9.60;99.90;;;;;;5098176;28;20377;-86
2022/11/04 05:16:08;;;;;;;0.40;0.40;;;9.50;99.90;;;;;;5079057;28;20125;-86
2022/11/04 05:18:34;;;;;;;0.40;0.40;;;9.50;99.90;;;;;;5086009;28;20043;-85
2022/11/04 05:21:07;;;;;;;;;;;9.50;99.90;;;;;;5085126;28;20062;-83
2022/11/04 05:23:36;;;;;;;0.52;0.52;;;9.40;99.90;;;;;;5115702;27;20253;-84
2022/11/04 05:26:02;;;;;;;0.63;0.63;;;9.50;99.90;;;;;;5099375;28;20123;-85
2022/11/04 05:28:27;;;;;;;;;;;9.50;99.90;;;;;;5068722;28;20506;-84
2022/11/04 05:30:53;;;;;;;0.73;0.73;;;9.40;99.90;;;;;;5119493;27;19920;-86
2022/11/04 05:33:19;;;;;;;0.50;0.50;;;9.40;99.90;;;;;;5092064;28;20036;-85
2022/11/04 05:35:45;;;;;;;0.40;0.40;;;9.50;99.90;;;;;;5082808;28;20036;-85
2022/11/04 05:38:10;;;;;;;0.50;0.50;;;9.50;99.90;;;;;;5057253;28;20520;-86
2022/11/04 05:40:36;;;;;;;0.55;0.55;;;9.50;99.90;;;;;;5105103;28;20027;-85
2022/11/04 05:43:02;;;;;;;0.60;0.60;;;9.40;99.90;;;;;;5085753;28;20050;-88
2022/11/04 05:45:28;;;;;;;;;;;9.40;99.90;;;;;;5052292;28;20572;-88
2022/11/04 05:48:02;;;;;;;0.63;0.63;;;9.40;99.90;;;;;;5102622;28;19990;-87
2022/11/04 05:50:29;;;;;;;0.50;0.50;;;9.30;99.90;;;;;;5065078;28;20047;-87
2022/11/04 05:52:57;;;;;;;0.60;0.60;;;9.30;99.90;;;;;;5100353;28;20052;-87
2022/11/04 05:55:23;;;;;;;0.60;0.60;;;9.20;99.90;;;;;;5083315;28;20039;-86
2022/11/04 05:57:49;;;;;;;0.50;0.50;;;9.20;99.90;;;;;;5085485;28;20197;-92
2022/11/04 06:00:15;;;;;;;0.50;0.50;;;9.10;99.90;;;;;;5069646;28;20047;-89
2022/11/04 06:02:41;;;;;;;0.55;0.55;;;9.10;99.90;;;;;;5088761;28;20039;-91
2022/11/04 06:05:07;;;;;;;0.40;0.40;;;9.10;99.90;;;;;;5082436;28;20055;-88
2022/11/04 06:07:33;;;;;;;0.40;0.40;;;9.10;99.90;;;;;;5086722;28;20126;-90
2022/11/04 06:09:59;;;;;;;0.50;0.50;;;9.10;99.90;;;;;;5079163;28;20074;-88
2022/11/04 06:12:25;;;;;;;0.40;0.40;;;9.20;99.90;;;;;;5095457;28;20043;-90
2022/11/04 06:14:52;;;;;;;0.40;0.40;;;9.20;99.90;;;;;;5088224;28;20048;-89
2022/11/04 06:17:20;;;;;;;0.70;0.70;;;9.20;99.90;;;;;;5070252;28;20044;-89
2022/11/04 06:19:46;;;;;;;0.60;0.60;;;9.10;99.90;;;;;;5084379;28;20439;-88
2022/11/04 06:22:13;;;;;;;0.50;0.50;;;9.10;99.90;;;;;;5064809;27;20039;-88
2022/11/04 06:24:39;;;;;;;0.65;0.65;;;9.20;99.90;;;;;;5083538;28;20384;-91
2022/11/04 06:27:05;;;;;;;0.60;0.60;;;9.10;99.90;;;;;;5082001;28;20040;-89
2022/11/04 06:29:31;;;;;;;0.60;0.60;;;9.20;99.90;;;;;;5107366;28;20047;-88
2022/11/04 06:31:57;;;;;;;0.50;0.50;;;9.10;99.90;;;;;;5078636;28;20058;-88
2022/11/04 06:34:23;;;;;;;0.40;0.40;;;9.40;99.90;;;;;;5097523;28;20099;-89
2022/11/04 06:36:49;;;;;;;;;;;9.00;99.90;;;;;;5077370;28;20036;-87
2022/11/04 06:39:15;;;;;;;0.50;0.50;;;8.90;99.90;;;;;;5108561;28;19922;-88
2022/11/04 06:41:40;;;;;;;0.40;0.40;;;8.80;99.90;;;;;;5073037;28;20036;-88
2022/11/04 06:44:06;;;;;;;0.40;0.40;;;8.80;99.90;;;;;;5094493;28;20032;-87
2022/11/04 06:46:40;;;;;;;0.40;0.40;;;8.80;99.90;;;;;;5079936;28;20036;-87
2022/11/04 06:49:10;;;;;;;0.40;0.40;;;8.70;99.90;;;;;;5080587;28;20070;-87
2022/11/04 06:51:36;;;;;;;0.40;0.40;;;8.70;99.90;;;;;;5071532;28;20481;-87
2022/11/04 06:54:02;;;;;;;0.47;0.47;;;8.60;99.90;;;;;;5088181;28;20032;-87
2022/11/04 06:56:28;;;;;;;0.50;0.50;;;8.60;99.90;;;;;;5071597;28;20036;-87
2022/11/04 06:58:54;;;;;;;;;;;8.60;99.90;;;;;;5084820;28;20059;-87
2022/11/04 07:01:24;;;;;;;0.43;0.43;;;8.70;99.90;;;;;;5060831;28;19924;-84
2022/11/04 07:03:58;;;;;;;0.40;0.40;;;8.80;99.90;;;;;;5070502;28;20315;-87
2022/11/04 07:06:25;;;;;;;0.50;0.50;;;8.80;99.90;;;;;;5089528;28;20079;-87
2022/11/04 07:08:52;;;;;;;0.60;0.60;;;8.90;99.90;;;;;;5073529;28;20070;-87
2022/11/04 07:11:20;;;;;;;0.40;0.40;;;8.90;99.90;;;;;;5065808;28;20115;-86
2022/11/04 07:13:47;;;;;;;0.40;0.40;;;8.80;99.90;;;;;;5057651;28;20042;-87
2022/11/04 07:16:14;;;;;;;0.40;0.40;;;8.90;99.90;;;;;;5073138;28;20162;-89
2022/11/04 07:18:40;;;;;;;0.50;0.50;;;8.80;99.90;;;;;;5072666;28;20036;-88
2022/11/04 07:21:07;;;;;;;0.47;0.47;;;8.80;99.90;;;;;;5043993;28;20036;-88
2022/11/04 07:23:34;;;;;;;0.40;0.40;;;8.90;99.90;;;;;;5064959;28;20040;-88
2022/11/04 07:26:02;;;;;;;0.65;0.65;;;8.70;99.90;;;;;;5070606;28;20943;-86
2022/11/04 07:28:28;;;;;;;0.45;0.45;;;8.70;99.90;;;;;;5078990;28;20048;-86
2022/11/04 07:30:58;;;;;;;0.50;0.50;;;8.60;99.90;;;;;;5083397;28;20028;-86
2022/11/04 07:33:25;;;;;;;0.50;0.50;;;8.60;99.90;;;;;;5084709;28;20078;-86
2022/11/04 07:35:52;;;;;;;0.35;0.35;;;8.60;99.90;;;;;;5067811;28;20040;-88
2022/11/04 07:38:19;;;;;;;0.55;0.55;;;8.60;99.90;;;;;;5083560;28;20065;-86
2022/11/04 07:40:45;;;;;;;0.40;0.40;;;8.60;99.90;;;;;;5063767;28;20067;-87
2022/11/04 07:43:10;;;;;;;0.50;0.50;;;8.90;99.90;;;;;;5065544;28;20067;-85
2022/11/04 07:45:36;;;;;;;0.65;0.65;;;8.60;99.90;;;;;;5074647;28;20100;-86
2022/11/04 07:48:02;;;;;;;0.40;0.40;;;8.60;99.90;;;;;;5081556;28;20048;-85
2022/11/04 07:50:28;;;;;;;;;;;8.60;99.90;;;;;;5058398;28;20041;-87
2022/11/04 07:52:54;;;;;;;0.50;0.50;;;8.70;99.90;;;;;;5116706;27;20337;-88
2022/11/04 07:55:20;;;;;;;0.45;0.45;;;8.80;99.90;;;;;;5058267;28;20070;-88
2022/11/04 07:57:46;;;;;;;0.40;0.40;;;8.70;99.90;;;;;;5080433;28;20155;-86
2022/11/04 08:00:14;;;;;;;0.50;0.50;;;8.70;99.90;;;;;;5066199;28;20111;-86
2022/11/04 08:02:43;;;;;;;0.40;0.40;;;8.70;99.90;;;;;;5082712;28;20409;-87
2022/11/04 08:05:09;;;;;;;0.50;0.50;;;8.80;99.90;;;;;;5085912;28;20044;-86
2022/11/04 08:07:35;;;;;;;0.45;0.45;;;8.90;99.90;;;;;;5068476;28;20083;-87
2022/11/04 08:10:01;;;;;;;0.50;0.50;;;8.90;99.90;;;;;;5067670;28;20588;-87
2022/11/04 08:12:27;;;;;;;0.57;0.57;;;9.00;99.90;;;;;;5054066;28;20447;-88
2022/11/04 08:14:53;;;;;;;0.30;0.30;;;9.00;99.90;;;;;;5076663;28;20097;-86
2022/11/04 08:17:19;;;;;;;0.57;0.57;;;9.00;99.90;;;;;;5077118;28;20040;-82
2022/11/04 08:19:44;;;;;;;0.50;0.50;;;9.10;99.90;;;;;;5063170;28;20359;-87
2022/11/04 08:22:10;;;;;;;0.45;0.45;;;9.10;99.90;;;;;;5059025;28;20047;-84
2022/11/04 08:24:36;;;;;;;0.47;0.47;;;9.10;99.90;;;;;;5074434;28;20071;-86
2022/11/04 08:27:06;;;;;;;0.30;0.30;;;9.10;99.90;;;;;;5049515;28;20036;-84
2022/11/04 08:29:33;;;;;;;0.57;0.57;;;9.20;99.90;;;;;;5057476;28;20036;-83
2022/11/04 08:32:00;;;;;;;0.50;0.50;;;9.30;99.90;;;;;;5075322;28;20032;-86
2022/11/04 08:34:25;;;;;;;0.55;0.55;;;9.30;99.90;;;;;;5059547;28;20047;-85
2022/11/04 08:36:56;;;;;;;0.52;0.52;;;9.40;99.90;;;;;;5048877;28;20048;-83
2022/11/04 08:39:23;;;;;;;0.40;0.40;;;9.50;99.90;;;;;;5058893;28;20116;-84
2022/11/04 08:41:49;;;;;;;0.40;0.40;;;9.60;99.90;;;;;;5073729;28;20151;-85
2022/11/04 08:44:16;;;;;;;;;;;9.60;99.90;;;;;;5048011;28;20038;-84
2022/11/04 08:46:43;;;;;;;0.38;0.38;;;9.70;99.90;;;;;;5105552;28;19931;-84
2022/11/04 08:49:09;;;;;;;0.50;0.50;;;9.70;99.90;;;;;;5059345;28;20032;-85
2022/11/04 08:51:39;;;;;;;0.40;0.40;;;9.80;99.90;;;;;;5061113;28;21046;-85
2022/11/04 08:54:06;;;;;;;0.60;0.60;;;9.80;99.90;;;;;;5067025;28;20089;-84
2022/11/04 08:56:34;;;;;;;0.43;0.43;;;9.90;99.90;;;;;;5080603;28;20071;-87
2022/11/04 08:59:01;;;;;;;0.88;0.88;;;10.00;99.90;;;;;;5085837;28;20056;-84
2022/11/04 09:01:28;;;;;;;0.50;0.50;;;10.00;99.90;;;;;;5086640;28;20114;-86
2022/11/04 09:03:54;;;;;;;0.30;0.30;;;10.20;99.90;;;;;;5082700;28;20039;-85
2022/11/04 09:06:23;;;;;;;0.40;0.40;;;10.10;99.90;;;;;;5087013;28;20093;-85
2022/11/04 09:08:49;;;;;;;0.43;0.43;;;10.20;99.90;;;;;;5077503;28;20036;-81
2022/11/04 09:11:16;;;;;;;;;;;10.30;99.90;;;;;;5081183;28;20074;-80
2022/11/04 09:13:42;;;;;;;0.30;0.30;;;10.40;99.90;;;;;;5068896;28;20469;-81
2022/11/04 09:16:11;;;;;;;0.40;0.40;;;9.50;99.90;;;;;;5061535;28;20083;-81
2022/11/04 09:18:38;;;;;;;0.40;0.40;;;10.50;99.90;;;;;;5063389;28;20472;-84
2022/11/04 09:21:05;;;;;;;;;;;10.50;99.90;;;;;;5069608;28;20127;-82
2022/11/04 09:23:31;;;;;;;0.43;0.43;;;10.60;99.90;;;;;;5058955;28;19921;-82
2022/11/04 09:26:01;;;;;;;0.32;0.32;;;10.70;99.90;;;;;;5053870;28;20701;-82
2022/11/04 09:28:27;;;;;;;0.40;0.40;;;10.70;99.90;;;;;;5090824;28;20046;-81
2022/11/04 09:30:53;;;;;;;0.50;0.50;;;10.80;99.90;;;;;;5064900;28;20040;-82
2022/11/04 09:33:19;;;;;;;0.30;0.30;;;10.80;99.90;;;;;;5075005;28;20564;-80
2022/11/04 09:35:54;;;;;;;1.75;1.65;;;10.90;99.90;;;;;;5041897;28;20044;-79
2022/11/04 09:38:20;;;;;;;0.47;0.47;;;11.00;99.90;;;;;;5088612;28;20047;-81
2022/11/04 09:40:47;;;;;;;0.40;0.40;;;11.00;99.90;;;;;;5066026;28;20033;-78
2022/11/04 09:43:44;;;;;;;0.40;0.40;;;11.20;99.90;;;;;;5056047;28;20474;-80
2022/11/04 09:46:12;;;;;;;0.40;0.40;;;11.40;99.90;;;;;;5065995;28;20425;-80
2022/11/04 09:48:47;;;;;;;0.30;0.30;;;10.90;99.90;;;;;;5060600;28;20036;-80
2022/11/04 09:51:17;;;;;;;0.40;0.40;;;11.90;99.90;;;;;;5070680;28;20538;-81
2022/11/04 09:53:45;;;;;;;0.47;0.47;;;12.00;99.90;;;;;;5058667;28;20051;-82
2022/11/04 09:56:17;;;;;;;0.30;0.30;;;12.10;99.90;;;;;;5054227;28;20048;-81
2022/11/04 09:58:44;;;;;;;0.30;0.30;;;12.20;99.90;;;;;;5062637;28;20665;-81
2022/11/04 10:01:27;;;;;;;0.85;0.85;;;12.30;99.90;;;;;;5073487;28;20259;-81
2022/11/04 10:04:31;;;;;;;0.40;0.40;;;12.30;99.90;;;;;;5059402;28;20362;-78
2022/11/04 10:07:10;;;;;;;0.30;0.30;;;12.40;99.90;;;;;;5074248;28;20074;-80
2022/11/04 10:10:00;;;;;;;0.30;0.30;;;12.40;99.90;;;;;;5077430;28;20048;-81
2022/11/04 10:12:53;;;;;;;0.30;0.30;;;12.50;99.90;;;;;;5053997;28;20442;-79
2022/11/04 10:15:46;;;;;;;0.40;0.40;;;12.50;99.90;;;;;;5062857;28;20096;-83
2022/11/04 10:18:49;;;;;;;0.40;0.40;;;12.50;99.90;;;;;;5052739;28;20048;-81
2022/11/04 10:21:34;;;;;;;3.53;0.60;;;12.50;99.90;;;;;;5074844;28;20642;-81
2022/11/04 10:24:15;;;;;;;0.40;0.40;;;12.60;99.90;;;;;;5065736;28;20128;-81
2022/11/04 10:26:46;;;;;;;0.40;0.40;;;12.60;99.90;;;;;;5053814;28;20040;-82
2022/11/04 10:29:16;;;;;;;0.70;0.70;;;12.70;99.90;;;;;;5054334;28;20056;-81
2022/11/04 10:31:45;;;;;;;0.40;0.40;;;12.60;99.90;;;;;;5057605;28;20498;-79
2022/11/04 10:34:35;;;;;;;0.30;0.30;;;12.60;99.90;;;;;;5054877;28;20046;-79
2022/11/04 10:37:01;;;;;;;2.10;0.50;;;12.60;99.90;;;;;;5073110;28;20162;-82
2022/11/04 10:39:38;;;;;;;0.40;0.40;;;12.50;99.90;;;;;;5044078;28;20048;-80
2022/11/04 10:42:04;;;;;;;2.72;2.63;;;12.60;99.90;;;;;;5072741;28;20050;-80
2022/11/04 10:44:36;;;;;;;0.30;0.30;;;12.30;99.90;;;;;;5075121;28;20317;-80
2022/11/04 10:47:20;;;;;;;0.30;0.30;;;12.50;99.90;;;;;;5056901;28;20041;-80
2022/11/04 10:50:16;;;;;;;0.57;0.57;;;11.90;99.90;;;;;;5051933;28;20350;-80
2022/11/04 10:52:42;;;;;;;1.33;1.30;;;12.50;99.90;;;;;;5056364;28;20040;-79
2022/11/04 10:55:33;;;;;;;0.50;0.50;;;12.50;99.90;;;;;;5054683;28;20117;-79
2022/11/04 10:57:59;;;;;;;0.30;0.30;;;12.60;99.90;;;;;;5054956;28;20090;-82
2022/11/04 11:00:35;;;;;;;;;;;12.60;99.90;;;;;;5078666;28;20727;-81
2022/11/04 11:03:01;;;;;;;0.60;0.60;;;12.60;99.90;;;;;;5085660;28;19924;-80
2022/11/04 11:05:28;;;;;;;0.40;0.40;;;12.60;99.90;;;;;;5047925;28;20036;-81
2022/11/04 11:07:56;;;;;;;0.40;0.40;;;12.60;99.90;;;;;;5050357;28;20062;-80
2022/11/04 11:10:24;;;;;;;0.68;0.68;;;12.60;99.90;;;;;;5069901;28;20064;-80
2022/11/04 11:13:23;;;;;;;0.30;0.30;;;12.80;99.90;;;;;;5069604;28;20708;-80
2022/11/04 11:16:02;;;;;;;0.25;0.25;;;12.90;99.90;;;;;;5056272;28;20520;-79
2022/11/04 11:18:28;;;;;;;0.45;0.45;;;12.90;99.90;;;;;;5050624;28;20035;-81
2022/11/04 11:21:20;;;;;;;1.13;0.73;;;13.00;99.90;;;;;;5066096;28;20481;-81
2022/11/04 11:23:53;;;;;;;0.38;0.38;;;13.00;99.90;;;;;;5056002;28;20489;-80
2022/11/04 11:26:28;;;;;;;0.60;0.60;;;13.00;99.90;;;;;;5050628;28;20063;-79
2022/11/04 11:28:56;;;;;;;0.30;0.30;;;12.90;99.90;;;;;;5059078;28;20047;-81
2022/11/04 11:31:25;;;;;;;0.35;0.35;;;12.90;99.90;;;;;;5055644;28;20043;-81
2022/11/04 11:34:05;;;;;;;0.30;0.30;;;12.90;99.90;;;;;;5037900;28;20044;-78
2022/11/04 11:36:37;;;;;;;0.30;0.30;;;12.80;99.90;;;;;;5068726;28;20044;-78
2022/11/04 11:39:15;;;;;;;0.30;0.30;;;12.80;99.90;;;;;;5053241;28;20045;-77
2022/11/04 11:42:06;;;;;;;0.38;0.38;;;12.70;99.90;;;;;;5069356;28;20040;-79
2022/11/04 11:44:45;;;;;;;0.30;0.30;;;12.70;99.90;;;;;;5049210;28;20043;-77
2022/11/04 11:47:31;;;;;;;0.40;0.40;;;12.60;99.90;;;;;;5069722;28;20044;-84
2022/11/04 11:50:06;;;;;;;0.50;0.50;;;12.30;99.90;;;;;;5016173;28;20159;-80
2022/11/04 11:52:35;;;;;;;0.60;0.60;;;12.00;99.90;;;;;;5055795;28;20056;-81
2022/11/04 11:55:42;;;;;;;0.40;0.40;;;11.70;99.90;;;;;;5065165;28;20067;-82
2022/11/04 11:58:50;;;;;;;0.50;0.50;;;11.50;99.90;;;;;;5071122;28;20509;-81
2022/11/04 12:01:31;;;;;;;0.32;0.32;;;11.30;99.90;;;;;;5073776;28;20134;-82
2022/11/04 12:03:59;;;;;;;0.45;0.45;;;11.20;99.90;;;;;;5052073;28;20048;-82
2022/11/04 12:06:47;;;;;;;0.40;0.40;;;11.20;99.90;;;;;;5054656;28;20075;-81
2022/11/04 12:09:25;;;;;;;0.40;0.40;;;11.20;99.90;;;;;;5053710;28;20155;-80
2022/11/04 12:12:09;;;;;;;0.47;0.47;;;11.20;99.90;;;;;;5051124;28;20079;-82
2022/11/04 12:14:56;;;;;;;;;;;11.20;99.90;;;;;;5076255;28;20055;-81
2022/11/04 12:17:31;;;;;;;0.30;0.30;;;11.10;99.90;;;;;;5082318;28;20055;-81
2022/11/04 12:20:31;;;;;;;0.50;0.50;;;11.20;99.90;;;;;;5083642;28;20119;-80
2022/11/04 12:23:09;;;;;;;0.35;0.35;;;11.10;99.90;;;;;;5044414;28;20040;-81
2022/11/04 12:25:50;;;;;;;0.45;0.45;;;11.20;99.90;;;;;;5051461;28;20047;-82
2022/11/04 12:28:31;;;;;;;0.52;0.52;;;11.10;99.90;;;;;;5051339;28;20043;-81
2022/11/04 12:31:20;;;;;;;0.40;0.40;;;11.10;99.90;;;;;;5059967;28;20044;-81
2022/11/04 12:34:08;;;;;;;0.40;0.40;;;11.10;99.90;;;;;;5056005;28;20083;-80
2022/11/04 12:36:51;;;;;;;0.55;0.55;;;11.10;99.90;;;;;;5048665;28;20036;-82
2022/11/04 12:40:02;;;;;;;0.30;0.30;;;11.10;99.90;;;;;;5063331;28;20036;-80
2022/11/04 12:42:41;;;;;;;2.38;2.28;;;11.10;99.90;;;;;;5000642;28;20261;-81
2022/11/04 12:45:29;;;;;;;0.30;0.30;;;11.20;99.90;;;;;;5033568;28;20090;-81
2022/11/04 12:48:08;;;;;;;0.47;0.47;;;11.30;99.90;;;;;;5053927;28;20077;-82
2022/11/04 12:50:42;;;;;;;0.40;0.40;;;11.30;99.90;;;;;;5069151;28;20041;-80
2022/11/04 12:53:27;;;;;;;1.50;1.40;;;11.40;99.90;;;;;;5062235;28;20044;-82
2022/11/04 12:56:16;;;;;;;0.82;0.82;;;11.30;99.90;;;;;;5056126;28;20049;-80
2022/11/04 12:58:51;;;;;;;0.40;0.40;;;11.30;99.90;;;;;;5079000;28;20490;-82
2022/11/04 13:01:28;;;;;;;0.35;0.35;;;11.40;99.90;;;;;;5083107;28;20047;-81
2022/11/04 13:04:00;;;;;;;0.30;0.30;;;11.40;99.90;;;;;;5076274;28;20049;-81
2022/11/04 13:06:52;;;;;;;0.40;0.40;;;11.50;99.90;;;;;;5079885;28;20055;-82
2022/11/04 13:09:44;;;;;;;0.47;0.47;;;11.70;99.90;;;;;;5055359;28;20044;-81
2022/11/04 13:12:35;;;;;;;0.28;0.28;;;11.90;99.90;;;;;;5070073;28;20048;-82
2022/11/04 13:15:03;;;;;;;0.30;0.30;;;12.10;99.90;;;;;;5049111;28;20058;-82
2022/11/04 13:17:40;;;;;;;0.50;0.50;;;12.30;99.90;;;;;;5065263;28;20604;-82
2022/11/04 13:20:14;;;;;;;0.30;0.30;;;12.40;99.90;;;;;;5079752;28;20040;-81
2022/11/04 13:22:45;;;;;;;0.30;0.30;;;12.60;99.90;;;;;;5099016;28;20170;-81
2022/11/04 13:25:43;;;;;;;0.47;0.47;;;12.60;99.90;;;;;;5052975;28;20154;-83
2022/11/04 13:28:14;;;;;;;0.20;0.20;;;12.70;99.90;;;;;;5049169;28;22021;-81
2022/11/04 13:31:08;;;;;;;0.38;0.38;;;12.80;99.90;;;;;;5062094;28;20047;-80
2022/11/04 13:33:46;;;;;;;0.30;0.30;;;13.00;99.90;;;;;;5061691;28;20124;-80
2022/11/04 13:36:24;;;;;;;0.30;0.30;;;13.30;99.90;;;;;;5075211;28;20040;-81
2022/11/04 13:39:13;;;;;;;0.30;0.30;;;13.70;99.90;;;;;;5066450;28;20047;-80
2022/11/04 13:42:16;;;;;;;0.30;0.30;;;14.00;99.90;;;;;;5055057;28;20043;-80
2022/11/04 13:44:44;;;;;;;0.40;0.40;;;14.30;99.90;;;;;;5067635;28;20036;-80
2022/11/04 13:47:24;;;;;;;25.88;1.10;;;14.40;99.90;;;;;;5068031;28;20039;-81
2022/11/04 13:49:54;;;;;;;0.30;0.30;;;14.50;99.90;;;;;;5055642;28;20032;-80
2022/11/04 13:52:20;;;;;;;0.25;0.25;;;14.60;99.90;;;;;;5075382;28;20359;-80